sensor_id;sensor_type;location;lat;lon;timestamp;temperature;humidity
44121;DHT22;29783;52.504;13.478;2023-04-03T00:01:34;0.90;77.80
44121;DHT22;29783;52.504;13.478;2023-04-03T00:04:01;0.80;78.00
44121;DHT22;29783;52.504;13.478;2023-04-03T00:06:27;0.80;78.60
44121;DHT22;29783;52.504;13.478;2023-04-03T00:08:53;0.70;78.80
44121;DHT22;29783;52.504;13.478;2023-04-03T00:11:19;0.70;78.80
44121;DHT22;29783;52.504;13.478;2023-04-03T00:13:45;0.70;78.70
44121;DHT22;29783;52.504;13.478;2023-04-03T00:16:11;0.70;78.60
44121;DHT22;29783;52.504;13.478;2023-04-03T00:18:39;0.80;78.40
44121;DHT22;29783;52.504;13.478;2023-04-03T00:21:06;0.70;78.40
44121;DHT22;29783;52.504;13.478;2023-04-03T00:23:32;0.70;78.30
44121;DHT22;29783;52.504;13.478;2023-04-03T00:25:58;0.80;78.30
44121;DHT22;29783;52.504;13.478;2023-04-03T00:28:24;0.70;77.90
44121;DHT22;29783;52.504;13.478;2023-04-03T00:30:53;0.60;78.20
44121;DHT22;29783;52.504;13.478;2023-04-03T00:33:19;0.60;78.40
44121;DHT22;29783;52.504;13.478;2023-04-03T00:35:50;0.60;78.30
44121;DHT22;29783;52.504;13.478;2023-04-03T00:38:22;0.50;78.40
44121;DHT22;29783;52.504;13.478;2023-04-03T00:40:48;0.50;78.30
44121;DHT22;29783;52.504;13.478;2023-04-03T00:43:16;0.50;78.20
44121;DHT22;29783;52.504;13.478;2023-04-03T00:45:45;0.50;78.30
44121;DHT22;29783;52.504;13.478;2023-04-03T00:48:26;0.40;78.20
44121;DHT22;29783;52.504;13.478;2023-04-03T00:50:53;0.50;78.00
44121;DHT22;29783;52.504;13.478;2023-04-03T00:53:43;0.40;77.80
44121;DHT22;29783;52.504;13.478;2023-04-03T00:56:30;0.30;78.40
44121;DHT22;29783;52.504;13.478;2023-04-03T00:59:10;0.30;78.20
44121;DHT22;29783;52.504;13.478;2023-04-03T01:01:36;0.40;78.10
44121;DHT22;29783;52.504;13.478;2023-04-03T01:04:03;0.40;78.10
44121;DHT22;29783;52.504;13.478;2023-04-03T01:06:35;0.30;78.20
44121;DHT22;29783;52.504;13.478;2023-04-03T01:09:04;0.40;78.00
44121;DHT22;29783;52.504;13.478;2023-04-03T01:11:38;0.30;78.20
44121;DHT22;29783;52.504;13.478;2023-04-03T01:14:04;0.20;78.20
44121;DHT22;29783;52.504;13.478;2023-04-03T01:16:31;0.20;78.80
44121;DHT22;29783;52.504;13.478;2023-04-03T01:18:59;0.30;78.70
44121;DHT22;29783;52.504;13.478;2023-04-03T01:21:56;0.30;78.60
44121;DHT22;29783;52.504;13.478;2023-04-03T01:24:56;0.30;78.40
44121;DHT22;29783;52.504;13.478;2023-04-03T01:27:28;0.30;78.70
44121;DHT22;29783;52.504;13.478;2023-04-03T01:29:54;0.20;78.90
44121;DHT22;29783;52.504;13.478;2023-04-03T01:32:21;0.10;79.00
44121;DHT22;29783;52.504;13.478;2023-04-03T01:34:57;0.00;79.20
44121;DHT22;29783;52.504;13.478;2023-04-03T01:40:46;0.00;79.80
44121;DHT22;29783;52.504;13.478;2023-04-03T01:43:17;0.10;79.70
44121;DHT22;29783;52.504;13.478;2023-04-03T01:45:48;0.00;79.70
44121;DHT22;29783;52.504;13.478;2023-04-03T01:48:20;0.00;80.20
44121;DHT22;29783;52.504;13.478;2023-04-03T01:54:07;0.00;80.10
44121;DHT22;29783;52.504;13.478;2023-04-03T01:56:33;-3276.70;80.10
44121;DHT22;29783;52.504;13.478;2023-04-03T01:59:02;-3276.70;80.70
44121;DHT22;29783;52.504;13.478;2023-04-03T02:01:28;-3276.70;80.60
44121;DHT22;29783;52.504;13.478;2023-04-03T02:03:54;0.00;80.40
44121;DHT22;29783;52.504;13.478;2023-04-03T02:06:20;0.00;80.20
44121;DHT22;29783;52.504;13.478;2023-04-03T02:08:46;0.00;80.30
44121;DHT22;29783;52.504;13.478;2023-04-03T02:11:34;-3276.70;80.50
44121;DHT22;29783;52.504;13.478;2023-04-03T02:14:01;0.00;80.20
44121;DHT22;29783;52.504;13.478;2023-04-03T02:16:57;0.00;80.20
44121;DHT22;29783;52.504;13.478;2023-04-03T02:19:26;0.00;80.50
44121;DHT22;29783;52.504;13.478;2023-04-03T02:21:52;0.00;80.70
44121;DHT22;29783;52.504;13.478;2023-04-03T02:24:18;-3276.70;80.90
44121;DHT22;29783;52.504;13.478;2023-04-03T02:26:44;-3276.70;81.00
44121;DHT22;29783;52.504;13.478;2023-04-03T02:29:10;-3276.60;81.50
44121;DHT22;29783;52.504;13.478;2023-04-03T02:31:35;-3276.50;81.80
44121;DHT22;29783;52.504;13.478;2023-04-03T02:34:01;-3276.50;82.20
44121;DHT22;29783;52.504;13.478;2023-04-03T02:36:27;-3276.60;82.30
44121;DHT22;29783;52.504;13.478;2023-04-03T02:38:52;-3276.60;82.10
44121;DHT22;29783;52.504;13.478;2023-04-03T02:41:18;-3276.50;82.20
44121;DHT22;29783;52.504;13.478;2023-04-03T02:43:44;-3276.50;82.50
44121;DHT22;29783;52.504;13.478;2023-04-03T02:46:10;-3276.60;82.30
44121;DHT22;29783;52.504;13.478;2023-04-03T02:48:36;-3276.50;82.50
44121;DHT22;29783;52.504;13.478;2023-04-03T02:51:02;-3276.40;82.60
44121;DHT22;29783;52.504;13.478;2023-04-03T02:53:27;-3276.40;82.70
44121;DHT22;29783;52.504;13.478;2023-04-03T02:55:53;-3276.50;82.80
44121;DHT22;29783;52.504;13.478;2023-04-03T02:58:19;-3276.50;82.50
44121;DHT22;29783;52.504;13.478;2023-04-03T03:00:45;-3276.50;82.40
44121;DHT22;29783;52.504;13.478;2023-04-03T03:03:10;-3276.60;82.50
44121;DHT22;29783;52.504;13.478;2023-04-03T03:05:36;-3276.60;82.30
44121;DHT22;29783;52.504;13.478;2023-04-03T03:08:02;-3276.60;82.40
44121;DHT22;29783;52.504;13.478;2023-04-03T03:10:28;-3276.70;82.30
44121;DHT22;29783;52.504;13.478;2023-04-03T03:12:53;-3276.70;82.30
44121;DHT22;29783;52.504;13.478;2023-04-03T03:15:19;-3276.70;82.20
44121;DHT22;29783;52.504;13.478;2023-04-03T03:17:45;-3276.60;82.30
44121;DHT22;29783;52.504;13.478;2023-04-03T03:20:12;-3276.60;82.20
44121;DHT22;29783;52.504;13.478;2023-04-03T03:22:40;-3276.60;82.40
44121;DHT22;29783;52.504;13.478;2023-04-03T03:25:07;-3276.60;82.40
44121;DHT22;29783;52.504;13.478;2023-04-03T03:27:33;-3276.60;82.40
44121;DHT22;29783;52.504;13.478;2023-04-03T03:29:58;-3276.60;82.60
44121;DHT22;29783;52.504;13.478;2023-04-03T03:32:24;-3276.60;82.40
44121;DHT22;29783;52.504;13.478;2023-04-03T03:34:50;-3276.60;82.30
44121;DHT22;29783;52.504;13.478;2023-04-03T03:37:16;-3276.50;82.40
44121;DHT22;29783;52.504;13.478;2023-04-03T03:39:42;-3276.40;82.80
44121;DHT22;29783;52.504;13.478;2023-04-03T03:42:07;-3276.40;82.80
44121;DHT22;29783;52.504;13.478;2023-04-03T03:44:33;-3276.40;83.10
44121;DHT22;29783;52.504;13.478;2023-04-03T03:46:59;-3276.40;83.00
44121;DHT22;29783;52.504;13.478;2023-04-03T03:49:25;-3276.40;82.90
44121;DHT22;29783;52.504;13.478;2023-04-03T03:51:51;-3276.40;83.10
44121;DHT22;29783;52.504;13.478;2023-04-03T03:54:17;-3276.40;83.10
44121;DHT22;29783;52.504;13.478;2023-04-03T03:56:42;-3276.30;83.20
44121;DHT22;29783;52.504;13.478;2023-04-03T03:59:10;-3276.40;83.00
44121;DHT22;29783;52.504;13.478;2023-04-03T04:01:36;-3276.30;83.20
44121;DHT22;29783;52.504;13.478;2023-04-03T04:04:02;-3276.30;83.10
44121;DHT22;29783;52.504;13.478;2023-04-03T04:06:27;-3276.40;83.10
44121;DHT22;29783;52.504;13.478;2023-04-03T04:08:53;-3276.30;83.20
44121;DHT22;29783;52.504;13.478;2023-04-03T04:11:19;-3276.30;83.30
44121;DHT22;29783;52.504;13.478;2023-04-03T04:13:46;-3276.30;83.60
44121;DHT22;29783;52.504;13.478;2023-04-03T04:16:12;-3276.30;83.30
44121;DHT22;29783;52.504;13.478;2023-04-03T04:18:38;-3276.30;83.30
44121;DHT22;29783;52.504;13.478;2023-04-03T04:21:04;-3276.20;83.40
44121;DHT22;29783;52.504;13.478;2023-04-03T04:23:29;-3276.30;83.40
44121;DHT22;29783;52.504;13.478;2023-04-03T04:25:55;-3276.30;83.30
44121;DHT22;29783;52.504;13.478;2023-04-03T04:28:21;-3276.20;83.50
44121;DHT22;29783;52.504;13.478;2023-04-03T04:30:46;-3276.20;83.60
44121;DHT22;29783;52.504;13.478;2023-04-03T04:33:12;-3276.20;83.70
44121;DHT22;29783;52.504;13.478;2023-04-03T04:35:40;-3276.20;83.80
44121;DHT22;29783;52.504;13.478;2023-04-03T04:38:06;-3276.20;83.70
44121;DHT22;29783;52.504;13.478;2023-04-03T04:40:34;-3276.20;83.90
44121;DHT22;29783;52.504;13.478;2023-04-03T04:43:00;-3276.20;84.00
44121;DHT22;29783;52.504;13.478;2023-04-03T04:45:25;-3276.10;84.20
44121;DHT22;29783;52.504;13.478;2023-04-03T04:47:51;-3276.10;84.30
44121;DHT22;29783;52.504;13.478;2023-04-03T04:50:18;-3276.10;84.30
44121;DHT22;29783;52.504;13.478;2023-04-03T04:52:44;-3276.10;84.50
44121;DHT22;29783;52.504;13.478;2023-04-03T04:55:10;-3276.00;84.70
44121;DHT22;29783;52.504;13.478;2023-04-03T04:57:35;-3276.10;84.90
44121;DHT22;29783;52.504;13.478;2023-04-03T05:00:02;-3276.10;84.70
44121;DHT22;29783;52.504;13.478;2023-04-03T05:02:28;-3276.10;84.70
44121;DHT22;29783;52.504;13.478;2023-04-03T05:04:54;-3276.10;84.90
44121;DHT22;29783;52.504;13.478;2023-04-03T05:07:20;-3276.10;84.90
44121;DHT22;29783;52.504;13.478;2023-04-03T05:09:45;-3276.20;84.90
44121;DHT22;29783;52.504;13.478;2023-04-03T05:12:11;-3276.10;84.80
44121;DHT22;29783;52.504;13.478;2023-04-03T05:14:37;-3276.10;84.90
44121;DHT22;29783;52.504;13.478;2023-04-03T05:17:02;-3276.20;85.00
44121;DHT22;29783;52.504;13.478;2023-04-03T05:19:28;-3276.10;85.00
44121;DHT22;29783;52.504;13.478;2023-04-03T05:21:54;-3276.20;85.40
44121;DHT22;29783;52.504;13.478;2023-04-03T05:24:20;-3276.20;85.10
44121;DHT22;29783;52.504;13.478;2023-04-03T05:26:46;-3276.30;84.90
44121;DHT22;29783;52.504;13.478;2023-04-03T05:29:12;-3276.40;84.70
44121;DHT22;29783;52.504;13.478;2023-04-03T05:31:38;-3276.50;84.50
44121;DHT22;29783;52.504;13.478;2023-04-03T05:34:03;-3276.50;84.30
44121;DHT22;29783;52.504;13.478;2023-04-03T05:36:29;-3276.50;84.10
44121;DHT22;29783;52.504;13.478;2023-04-03T05:38:55;-3276.60;84.20
44121;DHT22;29783;52.504;13.478;2023-04-03T05:41:21;-3276.70;83.80
44121;DHT22;29783;52.504;13.478;2023-04-03T05:43:47;-3276.70;83.70
44121;DHT22;29783;52.504;13.478;2023-04-03T05:46:16;-3276.70;83.40
44121;DHT22;29783;52.504;13.478;2023-04-03T05:48:43;0.00;83.20
44121;DHT22;29783;52.504;13.478;2023-04-03T05:51:18;0.00;82.90
44121;DHT22;29783;52.504;13.478;2023-04-03T05:53:44;0.10;82.50
44121;DHT22;29783;52.504;13.478;2023-04-03T05:56:11;0.10;82.20
44121;DHT22;29783;52.504;13.478;2023-04-03T05:58:37;0.20;82.20
44121;DHT22;29783;52.504;13.478;2023-04-03T06:01:03;0.20;82.00
44121;DHT22;29783;52.504;13.478;2023-04-03T06:03:28;0.30;81.80
44121;DHT22;29783;52.504;13.478;2023-04-03T06:05:54;0.30;81.60
44121;DHT22;29783;52.504;13.478;2023-04-03T06:08:20;0.30;81.60
44121;DHT22;29783;52.504;13.478;2023-04-03T06:10:46;0.40;81.30
44121;DHT22;29783;52.504;13.478;2023-04-03T06:13:12;0.50;81.20
44121;DHT22;29783;52.504;13.478;2023-04-03T06:15:38;0.50;80.70
44121;DHT22;29783;52.504;13.478;2023-04-03T06:18:05;0.60;80.50
44121;DHT22;29783;52.504;13.478;2023-04-03T06:20:32;0.70;80.40
44121;DHT22;29783;52.504;13.478;2023-04-03T06:22:57;0.70;80.30
44121;DHT22;29783;52.504;13.478;2023-04-03T06:25:23;0.80;78.70
44121;DHT22;29783;52.504;13.478;2023-04-03T06:27:49;0.80;78.70
44121;DHT22;29783;52.504;13.478;2023-04-03T06:30:15;1.00;77.70
44121;DHT22;29783;52.504;13.478;2023-04-03T06:32:41;1.10;77.70
44121;DHT22;29783;52.504;13.478;2023-04-03T06:35:07;1.10;77.80
44121;DHT22;29783;52.504;13.478;2023-04-03T06:37:34;1.20;77.30
44121;DHT22;29783;52.504;13.478;2023-04-03T06:39:59;1.30;76.20
44121;DHT22;29783;52.504;13.478;2023-04-03T06:42:28;1.40;75.20
44121;DHT22;29783;52.504;13.478;2023-04-03T06:44:54;1.40;75.50
44121;DHT22;29783;52.504;13.478;2023-04-03T06:47:20;1.50;75.20
44121;DHT22;29783;52.504;13.478;2023-04-03T06:49:49;1.60;74.90
44121;DHT22;29783;52.504;13.478;2023-04-03T06:52:15;1.70;73.60
44121;DHT22;29783;52.504;13.478;2023-04-03T06:54:46;1.80;72.60
44121;DHT22;29783;52.504;13.478;2023-04-03T06:57:12;1.90;71.70
44121;DHT22;29783;52.504;13.478;2023-04-03T06:59:38;2.00;71.30
44121;DHT22;29783;52.504;13.478;2023-04-03T07:02:06;2.10;70.40
44121;DHT22;29783;52.504;13.478;2023-04-03T07:04:31;2.20;69.50
44121;DHT22;29783;52.504;13.478;2023-04-03T07:06:57;2.20;69.60
44121;DHT22;29783;52.504;13.478;2023-04-03T07:09:23;2.30;69.40
44121;DHT22;29783;52.504;13.478;2023-04-03T07:11:48;2.30;69.20
44121;DHT22;29783;52.504;13.478;2023-04-03T07:14:14;2.40;68.70
44121;DHT22;29783;52.504;13.478;2023-04-03T07:17:00;2.50;67.80
44121;DHT22;29783;52.504;13.478;2023-04-03T07:19:26;2.60;66.30
44121;DHT22;29783;52.504;13.478;2023-04-03T07:21:53;2.70;66.00
44121;DHT22;29783;52.504;13.478;2023-04-03T07:24:20;2.70;65.20
44121;DHT22;29783;52.504;13.478;2023-04-03T07:26:50;2.90;64.60
44121;DHT22;29783;52.504;13.478;2023-04-03T07:29:15;3.10;64.00
44121;DHT22;29783;52.504;13.478;2023-04-03T07:31:41;3.30;63.10
44121;DHT22;29783;52.504;13.478;2023-04-03T07:37:28;3.80;62.70
44121;DHT22;29783;52.504;13.478;2023-04-03T07:39:56;3.90;60.30
44121;DHT22;29783;52.504;13.478;2023-04-03T07:42:24;4.10;58.90
44121;DHT22;29783;52.504;13.478;2023-04-03T07:44:53;4.00;58.10
44121;DHT22;29783;52.504;13.478;2023-04-03T07:47:19;3.90;57.00
44121;DHT22;29783;52.504;13.478;2023-04-03T07:49:46;3.80;57.80
44121;DHT22;29783;52.504;13.478;2023-04-03T07:52:12;3.80;58.10
44121;DHT22;29783;52.504;13.478;2023-04-03T07:54:41;3.80;57.60
44121;DHT22;29783;52.504;13.478;2023-04-03T07:57:11;3.90;56.80
44121;DHT22;29783;52.504;13.478;2023-04-03T07:59:37;3.90;56.00
44121;DHT22;29783;52.504;13.478;2023-04-03T08:02:32;3.90;56.60
44121;DHT22;29783;52.504;13.478;2023-04-03T08:08:59;4.30;57.40
44121;DHT22;29783;52.504;13.478;2023-04-03T08:11:25;4.50;56.70
44121;DHT22;29783;52.504;13.478;2023-04-03T08:13:52;4.80;55.80
44121;DHT22;29783;52.504;13.478;2023-04-03T08:16:20;4.90;55.60
44121;DHT22;29783;52.504;13.478;2023-04-03T08:18:50;5.10;55.50
44121;DHT22;29783;52.504;13.478;2023-04-03T08:21:16;5.30;55.00
44121;DHT22;29783;52.504;13.478;2023-04-03T08:23:42;5.30;54.50
44121;DHT22;29783;52.504;13.478;2023-04-03T08:29:49;5.30;54.10
44121;DHT22;29783;52.504;13.478;2023-04-03T08:32:15;5.20;51.70
44121;DHT22;29783;52.504;13.478;2023-04-03T08:34:41;5.10;51.20
44121;DHT22;29783;52.504;13.478;2023-04-03T08:37:07;5.00;51.40
44121;DHT22;29783;52.504;13.478;2023-04-03T08:39:33;5.00;51.20
44121;DHT22;29783;52.504;13.478;2023-04-03T08:42:00;4.80;50.10
44121;DHT22;29783;52.504;13.478;2023-04-03T08:47:36;4.30;50.80
44121;DHT22;29783;52.504;13.478;2023-04-03T08:50:16;4.30;51.80
44121;DHT22;29783;52.504;13.478;2023-04-03T08:52:52;4.30;52.60
44121;DHT22;29783;52.504;13.478;2023-04-03T08:57:46;4.50;52.10
44121;DHT22;29783;52.504;13.478;2023-04-03T09:02:41;4.80;51.30
44121;DHT22;29783;52.504;13.478;2023-04-03T09:05:15;4.80;52.00
44121;DHT22;29783;52.504;13.478;2023-04-03T09:07:59;4.70;52.40
44121;DHT22;29783;52.504;13.478;2023-04-03T09:10:33;4.80;52.10
44121;DHT22;29783;52.504;13.478;2023-04-03T09:15:40;5.00;51.40
44121;DHT22;29783;52.504;13.478;2023-04-03T09:18:19;5.00;49.20
44121;DHT22;29783;52.504;13.478;2023-04-03T09:23:31;5.70;47.30
44121;DHT22;29783;52.504;13.478;2023-04-03T09:26:05;5.70;46.80
44121;DHT22;29783;52.504;13.478;2023-04-03T09:28:39;5.40;46.70
44121;DHT22;29783;52.504;13.478;2023-04-03T09:31:23;5.30;47.30
44121;DHT22;29783;52.504;13.478;2023-04-03T09:33:56;5.30;46.60
44121;DHT22;29783;52.504;13.478;2023-04-03T09:36:47;5.30;46.80
44121;DHT22;29783;52.504;13.478;2023-04-03T09:39:28;5.70;46.90
44121;DHT22;29783;52.504;13.478;2023-04-03T09:42:05;5.90;45.60
44121;DHT22;29783;52.504;13.478;2023-04-03T09:44:37;6.00;45.70
44121;DHT22;29783;52.504;13.478;2023-04-03T09:47:34;6.00;45.70
44121;DHT22;29783;52.504;13.478;2023-04-03T09:52:43;6.00;46.30
44121;DHT22;29783;52.504;13.478;2023-04-03T09:55:23;6.10;45.80
44121;DHT22;29783;52.504;13.478;2023-04-03T09:57:53;6.20;46.40
44121;DHT22;29783;52.504;13.478;2023-04-03T10:00:25;6.20;46.70
44121;DHT22;29783;52.504;13.478;2023-04-03T10:02:55;6.10;46.40
44121;DHT22;29783;52.504;13.478;2023-04-03T10:05:47;6.20;47.30
44121;DHT22;29783;52.504;13.478;2023-04-03T10:10:48;6.50;44.70
44121;DHT22;29783;52.504;13.478;2023-04-03T10:16:00;6.70;45.40
44121;DHT22;29783;52.504;13.478;2023-04-03T10:21:11;6.30;46.60
44121;DHT22;29783;52.504;13.478;2023-04-03T10:23:47;6.40;45.80
44121;DHT22;29783;52.504;13.478;2023-04-03T10:27:05;6.20;46.40
44121;DHT22;29783;52.504;13.478;2023-04-03T10:38:41;7.10;44.90
44121;DHT22;29783;52.504;13.478;2023-04-03T10:44:26;7.30;43.80
44121;DHT22;29783;52.504;13.478;2023-04-03T10:47:29;7.30;44.20
44121;DHT22;29783;52.504;13.478;2023-04-03T10:52:57;6.90;44.40
44121;DHT22;29783;52.504;13.478;2023-04-03T10:55:37;6.70;45.30
44121;DHT22;29783;52.504;13.478;2023-04-03T10:58:05;7.00;44.70
44121;DHT22;29783;52.504;13.478;2023-04-03T11:00:45;7.00;45.00
44121;DHT22;29783;52.504;13.478;2023-04-03T11:03:22;7.20;44.60
44121;DHT22;29783;52.504;13.478;2023-04-03T11:06:10;7.40;43.60
44121;DHT22;29783;52.504;13.478;2023-04-03T11:11:34;6.80;45.30
44121;DHT22;29783;52.504;13.478;2023-04-03T11:14:18;6.80;45.70
44121;DHT22;29783;52.504;13.478;2023-04-03T11:17:02;7.00;45.90
44121;DHT22;29783;52.504;13.478;2023-04-03T11:19:41;7.30;45.00
44121;DHT22;29783;52.504;13.478;2023-04-03T11:22:32;7.40;44.70
44121;DHT22;29783;52.504;13.478;2023-04-03T11:27:46;7.80;44.90
44121;DHT22;29783;52.504;13.478;2023-04-03T11:33:20;7.30;44.00
44121;DHT22;29783;52.504;13.478;2023-04-03T11:35:50;7.30;45.10
44121;DHT22;29783;52.504;13.478;2023-04-03T11:38:24;7.30;46.30
44121;DHT22;29783;52.504;13.478;2023-04-03T11:40:52;7.50;45.50
44121;DHT22;29783;52.504;13.478;2023-04-03T11:43:28;7.40;46.50
44121;DHT22;29783;52.504;13.478;2023-04-03T11:46:00;7.50;46.70
44121;DHT22;29783;52.504;13.478;2023-04-03T11:53:46;7.30;47.70
44121;DHT22;29783;52.504;13.478;2023-04-03T12:04:20;7.10;47.00
44121;DHT22;29783;52.504;13.478;2023-04-03T12:11:58;7.10;47.00
44121;DHT22;29783;52.504;13.478;2023-04-03T12:14:25;7.20;45.70
44121;DHT22;29783;52.504;13.478;2023-04-03T12:16:56;7.20;45.30
44121;DHT22;29783;52.504;13.478;2023-04-03T12:24:30;7.80;43.80
44121;DHT22;29783;52.504;13.478;2023-04-03T12:32:26;7.70;44.20
44121;DHT22;29783;52.504;13.478;2023-04-03T12:46:22;8.20;41.20
44121;DHT22;29783;52.504;13.478;2023-04-03T12:48:57;8.10;41.50
44121;DHT22;29783;52.504;13.478;2023-04-03T12:54:00;7.70;43.00
44121;DHT22;29783;52.504;13.478;2023-04-03T12:56:31;7.60;42.90
44121;DHT22;29783;52.504;13.478;2023-04-03T12:59:33;7.40;43.70
44121;DHT22;29783;52.504;13.478;2023-04-03T13:02:00;7.80;43.10
44121;DHT22;29783;52.504;13.478;2023-04-03T13:04:31;7.80;42.40
44121;DHT22;29783;52.504;13.478;2023-04-03T13:06:57;8.00;41.90
44121;DHT22;29783;52.504;13.478;2023-04-03T13:09:30;8.20;41.80
44121;DHT22;29783;52.504;13.478;2023-04-03T13:12:00;8.50;42.00
44121;DHT22;29783;52.504;13.478;2023-04-03T13:14:28;9.40;40.30
44121;DHT22;29783;52.504;13.478;2023-04-03T13:17:12;9.10;40.80
44121;DHT22;29783;52.504;13.478;2023-04-03T13:19:38;8.60;42.50
44121;DHT22;29783;52.504;13.478;2023-04-03T13:22:11;8.10;43.50
44121;DHT22;29783;52.504;13.478;2023-04-03T13:24:43;8.20;42.90
44121;DHT22;29783;52.504;13.478;2023-04-03T13:27:11;8.20;43.10
44121;DHT22;29783;52.504;13.478;2023-04-03T13:29:38;8.30;43.50
44121;DHT22;29783;52.504;13.478;2023-04-03T13:32:25;7.80;44.20
44121;DHT22;29783;52.504;13.478;2023-04-03T13:34:52;7.40;45.40
44121;DHT22;29783;52.504;13.478;2023-04-03T13:37:25;7.30;45.30
44121;DHT22;29783;52.504;13.478;2023-04-03T13:42:32;6.80;46.80
44121;DHT22;29783;52.504;13.478;2023-04-03T13:51:30;6.50;47.60
44121;DHT22;29783;52.504;13.478;2023-04-03T13:57:25;6.50;48.80
44121;DHT22;29783;52.504;13.478;2023-04-03T14:00:34;6.60;48.60
44121;DHT22;29783;52.504;13.478;2023-04-03T14:03:01;6.80;48.50
44121;DHT22;29783;52.504;13.478;2023-04-03T14:05:42;6.80;48.30
44121;DHT22;29783;52.504;13.478;2023-04-03T14:08:07;6.70;47.60
44121;DHT22;29783;52.504;13.478;2023-04-03T14:10:35;7.20;46.80
44121;DHT22;29783;52.504;13.478;2023-04-03T14:13:02;8.10;44.10
44121;DHT22;29783;52.504;13.478;2023-04-03T14:15:30;8.60;44.20
44121;DHT22;29783;52.504;13.478;2023-04-03T14:17:56;9.20;43.30
44121;DHT22;29783;52.504;13.478;2023-04-03T14:20:25;9.80;41.30
44121;DHT22;29783;52.504;13.478;2023-04-03T14:22:52;10.00;40.60
44121;DHT22;29783;52.504;13.478;2023-04-03T14:25:20;9.90;41.60
44121;DHT22;29783;52.504;13.478;2023-04-03T14:27:49;9.80;41.20
44121;DHT22;29783;52.504;13.478;2023-04-03T14:30:23;10.90;39.30
44121;DHT22;29783;52.504;13.478;2023-04-03T14:32:49;12.60;35.70
44121;DHT22;29783;52.504;13.478;2023-04-03T14:35:16;12.90;34.70
44121;DHT22;29783;52.504;13.478;2023-04-03T14:37:42;12.10;35.80
44121;DHT22;29783;52.504;13.478;2023-04-03T14:40:14;11.10;38.00
44121;DHT22;29783;52.504;13.478;2023-04-03T14:42:40;10.10;39.50
44121;DHT22;29783;52.504;13.478;2023-04-03T14:45:09;9.20;42.10
44121;DHT22;29783;52.504;13.478;2023-04-03T14:48:06;8.60;43.80
44121;DHT22;29783;52.504;13.478;2023-04-03T14:50:35;8.20;44.70
44121;DHT22;29783;52.504;13.478;2023-04-03T14:53:01;7.80;46.00
44121;DHT22;29783;52.504;13.478;2023-04-03T14:55:27;7.30;47.00
44121;DHT22;29783;52.504;13.478;2023-04-03T14:57:53;7.10;48.40
44121;DHT22;29783;52.504;13.478;2023-04-03T15:00:21;6.80;48.90
44121;DHT22;29783;52.504;13.478;2023-04-03T15:02:47;6.70;49.60
44121;DHT22;29783;52.504;13.478;2023-04-03T15:05:13;6.50;50.40
44121;DHT22;29783;52.504;13.478;2023-04-03T15:07:52;6.30;51.40
44121;DHT22;29783;52.504;13.478;2023-04-03T15:10:22;6.20;52.30
44121;DHT22;29783;52.504;13.478;2023-04-03T15:12:49;6.10;52.70
44121;DHT22;29783;52.504;13.478;2023-04-03T15:15:18;5.70;53.80
44121;DHT22;29783;52.504;13.478;2023-04-03T15:17:45;5.70;54.30
44121;DHT22;29783;52.504;13.478;2023-04-03T15:20:20;5.70;54.80
44121;DHT22;29783;52.504;13.478;2023-04-03T15:22:47;5.80;54.80
44121;DHT22;29783;52.504;13.478;2023-04-03T15:25:13;5.60;54.80
44121;DHT22;29783;52.504;13.478;2023-04-03T15:27:39;5.40;55.50
44121;DHT22;29783;52.504;13.478;2023-04-03T15:30:06;5.30;56.00
44121;DHT22;29783;52.504;13.478;2023-04-03T15:32:33;5.30;56.60
44121;DHT22;29783;52.504;13.478;2023-04-03T15:35:01;5.40;56.90
44121;DHT22;29783;52.504;13.478;2023-04-03T15:37:27;5.50;56.50
44121;DHT22;29783;52.504;13.478;2023-04-03T15:39:53;5.60;56.70
44121;DHT22;29783;52.504;13.478;2023-04-03T15:42:20;5.60;56.80
44121;DHT22;29783;52.504;13.478;2023-04-03T15:44:45;5.70;56.30
44121;DHT22;29783;52.504;13.478;2023-04-03T15:47:11;5.60;54.90
44121;DHT22;29783;52.504;13.478;2023-04-03T15:49:38;5.70;55.00
44121;DHT22;29783;52.504;13.478;2023-04-03T15:52:04;5.60;55.00
44121;DHT22;29783;52.504;13.478;2023-04-03T15:54:30;5.70;54.90
44121;DHT22;29783;52.504;13.478;2023-04-03T15:56:56;5.30;55.90
44121;DHT22;29783;52.504;13.478;2023-04-03T15:59:22;5.20;56.20
44121;DHT22;29783;52.504;13.478;2023-04-03T16:04:18;5.00;57.10
44121;DHT22;29783;52.504;13.478;2023-04-03T16:06:46;5.00;57.40
44121;DHT22;29783;52.504;13.478;2023-04-03T16:09:12;6.30;54.70
44121;DHT22;29783;52.504;13.478;2023-04-03T16:11:38;8.70;48.50
44121;DHT22;29783;52.504;13.478;2023-04-03T16:14:06;10.50;44.00
44121;DHT22;29783;52.504;13.478;2023-04-03T16:16:32;11.30;41.20
44121;DHT22;29783;52.504;13.478;2023-04-03T16:18:59;11.20;41.00
44121;DHT22;29783;52.504;13.478;2023-04-03T16:21:25;10.50;41.70
44121;DHT22;29783;52.504;13.478;2023-04-03T16:23:52;10.00;42.50
44121;DHT22;29783;52.504;13.478;2023-04-03T16:26:18;9.40;43.60
44121;DHT22;29783;52.504;13.478;2023-04-03T16:28:43;9.00;44.60
44121;DHT22;29783;52.504;13.478;2023-04-03T16:31:09;8.20;46.40
44121;DHT22;29783;52.504;13.478;2023-04-03T16:33:35;7.50;48.20
44121;DHT22;29783;52.504;13.478;2023-04-03T16:36:03;7.10;49.50
44121;DHT22;29783;52.504;13.478;2023-04-03T16:38:30;6.80;50.60
44121;DHT22;29783;52.504;13.478;2023-04-03T16:40:56;6.50;51.70
44121;DHT22;29783;52.504;13.478;2023-04-03T16:43:25;6.30;52.70
44121;DHT22;29783;52.504;13.478;2023-04-03T16:45:51;6.10;54.00
44121;DHT22;29783;52.504;13.478;2023-04-03T16:48:17;5.90;55.10
44121;DHT22;29783;52.504;13.478;2023-04-03T16:50:46;5.70;55.50
44121;DHT22;29783;52.504;13.478;2023-04-03T16:53:14;5.60;56.00
44121;DHT22;29783;52.504;13.478;2023-04-03T16:55:40;5.50;56.90
44121;DHT22;29783;52.504;13.478;2023-04-03T16:58:05;5.40;56.80
44121;DHT22;29783;52.504;13.478;2023-04-03T17:00:32;5.30;57.00
44121;DHT22;29783;52.504;13.478;2023-04-03T17:02:58;5.20;57.50
44121;DHT22;29783;52.504;13.478;2023-04-03T17:05:24;5.20;57.70
44121;DHT22;29783;52.504;13.478;2023-04-03T17:07:50;5.10;58.10
44121;DHT22;29783;52.504;13.478;2023-04-03T17:10:16;5.00;57.90
44121;DHT22;29783;52.504;13.478;2023-04-03T17:12:42;5.00;58.60
44121;DHT22;29783;52.504;13.478;2023-04-03T17:15:08;5.00;58.60
44121;DHT22;29783;52.504;13.478;2023-04-03T17:17:34;5.00;58.80
44121;DHT22;29783;52.504;13.478;2023-04-03T17:20:00;5.00;59.10
44121;DHT22;29783;52.504;13.478;2023-04-03T17:22:27;5.00;59.00
44121;DHT22;29783;52.504;13.478;2023-04-03T17:24:54;4.90;59.30
44121;DHT22;29783;52.504;13.478;2023-04-03T17:27:20;4.80;59.80
44121;DHT22;29783;52.504;13.478;2023-04-03T17:29:46;4.80;60.00
44121;DHT22;29783;52.504;13.478;2023-04-03T17:32:11;4.80;59.90
44121;DHT22;29783;52.504;13.478;2023-04-03T17:34:37;4.80;59.70